Time,TemperatureF,DewpointF,PressureIn,WindDirection,WindDirectionDegrees,WindSpeedMPH,WindSpeedGustMPH,Humidity,HourlyPrecipIn,Conditions,Clouds,dailyrainin,SolarRadiationWatts/m^2,SoftwareType,DateUTC
2013-06-24 00:04:00,63.4,12.0,29.51,NE,39,0.0,7.0,13,0.00,,,0.00,0,weatherlink.com 1.10,2013-06-24 06:04:00,
2013-06-24 00:19:00,63.3,11.0,29.51,ESE,116,1.0,5.0,13,0.00,,,0.00,0,weatherlink.com 1.10,2013-06-24 06:19:00,
2013-06-24 00:34:00,62.9,14.0,29.50,East,98,2.0,5.0,15,0.00,,,0.00,0,weatherlink.com 1.10,2013-06-24 06:34:00,
2013-06-24 00:49:00,62.3,15.0,29.50,ESE,107,0.0,4.0,16,0.00,,,0.00,0,weatherlink.com 1.10,2013-06-24 06:49:00,
2013-06-24 01:04:00,59.9,15.0,29.50,SE,137,1.0,4.0,17,0.00,,,0.00,0,weatherlink.com 1.10,2013-06-24 07:04:00,
2013-06-24 01:19:00,57.6,11.0,29.50,WNW,282,0.0,1.0,16,0.00,,,0.00,0,weatherlink.com 1.10,2013-06-24 07:19:00,
2013-06-24 01:34:00,55.8,13.0,29.50,North,360,0.0,0.0,18,0.00,,,0.00,0,weatherlink.com 1.10,2013-06-24 07:34:00,
2013-06-24 01:49:00,54.7,12.0,29.51,North,360,0.0,1.0,18,0.00,,,0.00,0,weatherlink.com 1.10,2013-06-24 07:49:00,
2013-06-24 02:04:00,53.3,12.0,29.51,North,360,0.0,3.0,19,0.00,,,0.00,0,weatherlink.com 1.10,2013-06-24 08:04:00,
2013-06-24 02:19:00,55.4,12.0,29.51,North,360,0.0,2.0,18,0.00,,,0.00,0,weatherlink.com 1.10,2013-06-24 08:19:00,
2013-06-24 02:49:00,56.4,10.0,29.53,North,360,0.0,3.0,16,0.00,,,0.00,0,weatherlink.com 1.10,2013-06-24 08:49:00,
2013-06-24 03:19:00,54.1,11.0,29.54,North,360,0.0,0.0,18,0.00,,,0.00,0,weatherlink.com 1.10,2013-06-24 09:19:00,
2013-06-24 03:34:00,53.5,11.0,29.54,North,360,0.0,3.0,18,0.00,,,0.00,0,weatherlink.com 1.10,2013-06-24 09:34:00,
2013-06-24 04:04:00,53.1,10.0,29.54,North,360,0.0,0.0,18,0.00,,,0.00,0,weatherlink.com 1.10,2013-06-24 10:04:00,
2013-06-24 04:35:00,52.3,10.0,29.52,North,360,0.0,0.0,18,0.00,,,0.00,0,weatherlink.com 1.10,2013-06-24 10:35:00,
2013-06-24 04:50:00,52.7,10.0,29.52,North,360,0.0,0.0,18,0.00,,,0.00,0,weatherlink.com 1.10,2013-06-24 10:50:00,
2013-06-24 05:05:00,52.1,11.0,29.52,North,360,0.0,2.0,19,0.00,,,0.00,0,weatherlink.com 1.10,2013-06-24 11:05:00,
2013-06-24 05:20:00,51.7,10.0,29.52,North,360,0.0,0.0,19,0.00,,,0.00,0,weatherlink.com 1.10,2013-06-24 11:20:00,
2013-06-24 05:35:00,51.5,10.0,29.53,North,360,1.0,1.0,19,0.00,,,0.00,0,weatherlink.com 1.10,2013-06-24 11:35:00,
2013-06-24 06:05:00,50.8,11.0,29.54,North,360,0.0,0.0,20,0.00,,,0.00,9,weatherlink.com 1.10,2013-06-24 12:05:00,
2013-06-24 06:35:00,53.0,12.0,29.55,North,360,0.0,1.0,19,0.00,,,0.00,23,weatherlink.com 1.10,2013-06-24 12:35:00,
2013-06-24 06:50:00,53.9,14.0,29.55,North,360,0.0,2.0,20,0.00,,,0.00,19,weatherlink.com 1.10,2013-06-24 12:50:00,
2013-06-24 07:05:00,54.0,14.0,29.56,North,360,0.0,1.0,20,0.00,,,0.00,33,weatherlink.com 1.10,2013-06-24 13:05:00,
2013-06-24 07:20:00,56.4,13.0,29.56,North,9,0.0,2.0,18,0.00,,,0.00,44,weatherlink.com 1.10,2013-06-24 13:20:00,
2013-06-24 07:50:00,58.7,14.0,29.57,West,263,2.0,5.0,17,0.00,,,0.00,53,weatherlink.com 1.10,2013-06-24 13:50:00,
2013-06-24 08:05:00,59.4,14.0,29.57,WNW,285,1.0,6.0,17,0.00,,,0.00,90,weatherlink.com 1.10,2013-06-24 14:05:00,
2013-06-24 08:20:00,60.6,15.0,29.57,WSW,238,3.0,5.0,17,0.00,,,0.00,58,weatherlink.com 1.10,2013-06-24 14:20:00,
2013-06-24 08:35:00,61.4,17.0,29.57,WNW,291,4.0,5.0,18,0.00,,,0.00,70,weatherlink.com 1.10,2013-06-24 14:35:00,
2013-06-24 08:50:00,62.1,17.0,29.57,West,273,2.0,6.0,17,0.00,,,0.00,76,weatherlink.com 1.10,2013-06-24 14:50:00,
2013-06-24 09:05:00,62.4,18.0,29.58,WSW,254,2.0,9.0,18,0.00,,,0.00,564,weatherlink.com 1.10,2013-06-24 15:05:00,
2013-06-24 09:20:00,63.4,19.0,29.57,NW,309,3.0,8.0,18,0.00,,,0.00,631,weatherlink.com 1.10,2013-06-24 15:20:00,
2013-06-24 09:35:00,64.4,17.0,29.56,WSW,246,1.0,9.0,16,0.00,,,0.00,677,weatherlink.com 1.10,2013-06-24 15:35:00,
2013-06-24 09:50:00,65.3,18.0,29.56,WNW,302,1.0,7.0,16,0.00,,,0.00,726,weatherlink.com 1.10,2013-06-24 15:50:00,
2013-06-24 10:05:00,66.7,19.0,29.56,WNW,300,4.0,7.0,16,0.00,,,0.00,766,weatherlink.com 1.10,2013-06-24 16:05:00,
2013-06-24 10:20:00,67.0,19.0,29.56,SW,227,2.0,6.0,16,0.00,,,0.00,814,weatherlink.com 1.10,2013-06-24 16:20:00,
2013-06-24 10:35:00,67.9,21.0,29.56,WNW,286,5.0,9.0,17,0.00,,,0.00,849,weatherlink.com 1.10,2013-06-24 16:35:00,
2013-06-24 11:06:00,69.4,20.0,29.55,SE,136,3.0,8.0,15,0.00,,,0.00,940,weatherlink.com 1.10,2013-06-24 17:06:00,
2013-06-24 11:36:00,71.8,16.0,29.55,WNW,288,4.0,10.0,12,0.00,,,0.00,979,weatherlink.com 1.10,2013-06-24 17:36:00,
2013-06-24 11:51:00,73.2,15.0,29.55,SW,231,5.0,8.0,11,0.00,,,0.00,900,weatherlink.com 1.10,2013-06-24 17:51:00,
2013-06-24 12:06:00,71.4,16.0,29.54,SW,234,4.0,10.0,12,0.00,,,0.00,1044,weatherlink.com 1.10,2013-06-24 18:06:00,
2013-06-24 12:51:00,74.1,14.0,29.54,WNW,297,4.0,10.0,10,0.00,,,0.00,1056,weatherlink.com 1.10,2013-06-24 18:51:00,
2013-06-24 13:06:00,74.2,14.0,29.53,NNE,22,3.0,8.0,10,0.00,,,0.00,1065,weatherlink.com 1.10,2013-06-24 19:06:00,
2013-06-24 13:21:00,75.0,12.0,29.51,WSW,243,5.0,10.0,9,0.00,,,0.00,1063,weatherlink.com 1.10,2013-06-24 19:21:00,
2013-06-24 13:36:00,76.3,11.0,29.51,NW,311,4.0,9.0,8,0.00,,,0.00,1060,weatherlink.com 1.10,2013-06-24 19:36:00,
2013-06-24 13:51:00,76.4,13.0,29.51,SW,224,5.0,11.0,9,0.00,,,0.00,1056,weatherlink.com 1.10,2013-06-24 19:51:00,
2013-06-24 14:06:00,75.7,13.0,29.51,SW,234,3.0,13.0,9,0.00,,,0.00,1046,weatherlink.com 1.10,2013-06-24 20:06:00,
2013-06-24 14:21:00,76.2,11.0,29.50,WSW,245,8.0,10.0,8,0.00,,,0.00,1027,weatherlink.com 1.10,2013-06-24 20:21:00,
2013-06-24 14:36:00,77.8,12.0,29.50,West,269,4.0,9.0,8,0.00,,,0.00,1018,weatherlink.com 1.10,2013-06-24 20:36:00,
2013-06-24 14:51:00,78.3,9.0,29.50,WSW,241,2.0,8.0,7,0.00,,,0.00,997,weatherlink.com 1.10,2013-06-24 20:51:00,
2013-06-24 15:06:00,78.3,9.0,29.50,West,267,4.0,9.0,7,0.00,,,0.00,977,weatherlink.com 1.10,2013-06-24 21:06:00,
2013-06-24 15:21:00,77.5,12.0,29.49,WSW,248,5.0,9.0,8,0.00,,,0.00,947,weatherlink.com 1.10,2013-06-24 21:21:00,
2013-06-24 15:51:00,78.3,12.0,29.49,WNW,297,3.0,14.0,8,0.00,,,0.00,888,weatherlink.com 1.10,2013-06-24 21:51:00,
2013-06-24 16:06:00,78.1,12.0,29.50,WNW,300,4.0,8.0,8,0.00,,,0.00,849,weatherlink.com 1.10,2013-06-24 22:06:00,
2013-06-24 16:21:00,77.1,14.0,29.48,SW,225,6.0,8.0,9,0.00,,,0.00,809,weatherlink.com 1.10,2013-06-24 22:21:00,
2013-06-24 16:51:00,74.9,12.0,29.49,WNW,297,2.0,11.0,9,0.00,,,0.00,436,weatherlink.com 1.10,2013-06-24 22:51:00,
2013-06-24 17:06:00,75.7,13.0,29.49,NW,304,6.0,11.0,9,0.00,,,0.00,700,weatherlink.com 1.10,2013-06-24 23:06:00,
2013-06-24 17:21:00,73.0,13.0,29.49,WNW,294,3.0,8.0,10,0.00,,,0.00,223,weatherlink.com 1.10,2013-06-24 23:21:00,
2013-06-24 17:36:00,73.8,14.0,29.49,WSW,244,4.0,8.0,10,0.00,,,0.00,130,weatherlink.com 1.10,2013-06-24 23:36:00,
2013-06-24 17:51:00,71.3,12.0,29.48,North,360,3.0,9.0,10,0.00,,,0.00,118,weatherlink.com 1.10,2013-06-24 23:51:00,
2013-06-24 18:06:00,71.0,12.0,29.49,West,261,3.0,8.0,10,0.00,,,0.00,132,weatherlink.com 1.10,2013-06-25 00:06:00,
2013-06-24 18:36:00,72.9,11.0,29.49,WNW,294,6.0,7.0,9,0.00,,,0.00,246,weatherlink.com 1.10,2013-06-25 00:36:00,
2013-06-24 19:06:00,70.6,3.0,29.50,SW,235,5.0,10.0,7,0.00,,,0.00,79,weatherlink.com 1.10,2013-06-25 01:06:00,
2013-06-24 19:36:00,68.7,-2.0,29.51,WSW,254,3.0,6.0,6,0.00,,,0.00,49,weatherlink.com 1.10,2013-06-25 01:36:00,
2013-06-24 19:51:00,68.9,2.0,29.52,WNW,286,1.0,5.0,7,0.00,,,0.00,40,weatherlink.com 1.10,2013-06-25 01:51:00,
2013-06-24 20:07:00,68.5,-2.0,29.53,WSW,254,2.0,9.0,6,0.00,,,0.00,19,weatherlink.com 1.10,2013-06-25 02:07:00,
2013-06-24 20:22:00,67.0,-3.0,29.54,SW,217,4.0,5.0,6,0.00,,,0.00,0,weatherlink.com 1.10,2013-06-25 02:22:00,
2013-06-24 20:52:00,65.2,-1.0,29.54,WSW,257,2.0,5.0,7,0.00,,,0.00,0,weatherlink.com 1.10,2013-06-25 02:52:00,
2013-06-24 21:07:00,64.8,-1.0,29.55,WSW,252,3.0,7.0,7,0.00,,,0.00,0,weatherlink.com 1.10,2013-06-25 03:07:00,
2013-06-24 21:52:00,62.2,2.0,29.57,West,267,0.0,2.0,9,0.00,,,0.00,0,weatherlink.com 1.10,2013-06-25 03:52:00,
2013-06-24 22:07:00,61.4,2.0,29.57,North,355,1.0,4.0,9,0.00,,,0.00,0,weatherlink.com 1.10,2013-06-25 04:07:00,
2013-06-24 22:22:00,60.9,1.0,29.58,NW,308,1.0,2.0,9,0.00,,,0.00,0,weatherlink.com 1.10,2013-06-25 04:22:00,
2013-06-24 22:37:00,61.1,2.0,29.58,West,270,0.0,4.0,9,0.00,,,0.00,0,weatherlink.com 1.10,2013-06-25 04:37:00,
2013-06-24 22:52:00,60.9,1.0,29.58,WSW,248,0.0,3.0,9,0.00,,,0.00,0,weatherlink.com 1.10,2013-06-25 04:52:00,
2013-06-24 23:07:00,60.7,1.0,29.57,SW,217,0.0,3.0,9,0.00,,,0.00,0,weatherlink.com 1.10,2013-06-25 05:07:00,
2013-06-24 23:22:00,59.6,0.0,29.57,WSW,246,0.0,2.0,9,0.00,,,0.00,0,weatherlink.com 1.10,2013-06-25 05:22:00,
2013-06-24 23:38:00,60.2,-2.0,29.57,North,360,2.0,4.0,8,0.00,,,0.00,0,weatherlink.com 1.10,2013-06-25 05:38:00,
2013-06-24 23:53:00,60.5,1.0,29.57,North,360,2.0,7.0,9,0.00,,,0.00,0,weatherlink.com 1.10,2013-06-25 05:53:00,